createdAt,value
2019-06-20T09:18:14.985Z,99.90
2019-06-20T15:18:59.466Z,94.80
2019-06-20T15:21:29.262Z,95.90
2019-06-20T15:23:59.623Z,97.20
2019-06-20T15:26:30.138Z,98.40
2019-06-20T15:29:00.008Z,97.00
2019-06-20T15:31:31.922Z,96.90
2019-06-20T15:34:01.529Z,96.40
2019-06-20T15:36:31.440Z,96.20
2019-06-20T15:39:01.884Z,97.40
2019-06-20T15:41:34.533Z,97.10
2019-06-20T15:44:06.110Z,97.90
2019-06-20T15:46:36.015Z,98.90
2019-06-20T15:49:15.657Z,98.90
2019-06-20T15:51:39.072Z,99.20
2019-06-20T15:54:09.610Z,99.90
2019-06-20T15:56:41.208Z,99.90
2019-06-20T15:59:11.798Z,99.90
2019-06-20T16:01:42.703Z,99.90
2019-06-20T16:04:13.604Z,99.90
2019-06-20T16:06:43.530Z,99.90
2019-06-20T16:09:13.946Z,99.90
2019-06-20T16:11:43.971Z,99.90
2019-06-20T16:14:17.243Z,99.90
2019-06-20T16:16:46.263Z,99.90
2019-06-20T16:19:16.578Z,99.90
2019-06-20T16:21:46.488Z,97.80
2019-06-20T16:24:16.214Z,97.80
2019-06-20T16:26:47.339Z,98.50
2019-06-20T16:29:17.650Z,99.90
2019-06-20T16:31:49.121Z,99.90
2019-06-20T16:34:20.597Z,99.80
2019-06-20T16:36:50.859Z,99.10
2019-06-20T16:39:21.922Z,99.90
2019-06-20T16:41:51.953Z,99.90
2019-06-20T16:44:22.553Z,99.00
2019-06-20T16:46:54.268Z,99.80
2019-06-20T16:49:25.228Z,99.90
2019-06-20T16:51:55.287Z,99.90
2019-06-20T16:54:25.899Z,99.90
